Latest Weather Observations for Camden

IDN60901

Issued at 5:21 am EST Thursday 5 May 2016 (issued every 10 minutes, with the page automatically refreshed every 10 minutes)

About weather observations | Map of Sydney area stations | Latest observations for Sydney area | Other Formats
Station Details ID: 068192 Name: CAMDEN AIRPORT AWS Lat: -34.04 Lon: 150.69 Height: 73.9 m
Data from the previous 72 hours. | See also: Recent months at Camden
Date/Time
EST
Tmp

°C
App
Tmp
°C
Dew
Point
°C
Rel
Hum
%
Delta-T

°C
Wind Press
QNH
hPa
Press
MSL
hPa
Rain
since
9 am
mm
Dir
 
Spd
km/h
Gust
km/h
Spd
kts
Gust
kts
05/05:00am 7.2 6.5 7.1 99 0.0 CALM 0 0 0 0 1019.2 1019.2 0.0
05/04:30am 7.7 7.1 7.6 99 0.0 CALM 0 0 0 0 1019.0 1019.0 0.0
05/04:00am 8.1 7.6 8.0 99 0.0 CALM 0 0 0 0 1018.9 1018.9 0.0
05/03:54am 8.0 7.5 7.9 99 0.0 CALM 0 0 0 0 1018.9 1018.9 0.0
05/03:30am 8.6 8.3 8.5 99 0.0 CALM 0 0 0 0 1018.8 1018.8 0.0
05/03:00am 8.5 7.0 8.4 99 0.0 SE 6 7 3 4 1018.8 1018.8 0.0
05/02:30am 8.5 6.8 8.4 99 0.0 SE 7 9 4 5 1018.8 1018.8 0.0
05/02:07am 9.2 9.0 9.1 99 0.0 CALM 0 0 0 0 1018.8 1018.8 0.0
05/02:00am 8.9 8.6 8.8 99 0.0 CALM 0 0 0 0 1018.8 1018.8 0.0
05/01:30am 9.0 8.8 8.9 99 0.0 CALM 0 0 0 0 1018.9 1018.9 0.0
05/01:00am 9.1 8.8 8.8 98 0.1 CALM 0 0 0 0 1019.1 1019.1 0.0
05/12:30am 10.4 10.5 10.2 99 0.1 CALM 0 0 0 0 1019.2 1019.2 0.0
05/12:00am 10.9 11.1 10.6 98 0.2 CALM 0 0 0 0 1019.3 1019.3 0.0
 
Date/Time
EST
Tmp

°C
App
Tmp
°C
Dew
Point
°C
Rel
Hum
%
Delta-T

°C
Wind Press
QNH
hPa
Press
MSL
hPa
Rain
since
9 am
mm
Dir
 
Spd
km/h
Gust
km/h
Spd
kts
Gust
kts
04/11:30pm 11.2 11.4 10.6 96 0.3 CALM 0 0 0 0 1019.3 1019.3 0.0
04/11:00pm 11.9 12.3 11.4 97 0.3 CALM 0 0 0 0 1019.4 1019.4 0.0
04/10:53pm 12.3 12.9 11.8 97 0.3 CALM 0 0 0 0 1019.4 1019.4 0.0
04/10:30pm 13.1 14.0 12.8 98 0.2 CALM 0 0 0 0 1019.4 1019.4 0.0
04/10:00pm 13.0 13.7 12.2 95 0.4 CALM 0 2 0 1 1019.4 1019.4 0.0
04/09:30pm 13.4 14.3 12.8 96 0.3 CALM 0 0 0 0 1019.3 1019.3 0.0
04/09:00pm 13.1 13.6 11.7 91 0.7 CALM 0 6 0 3 1019.1 1019.1 0.0
04/08:30pm 14.4 13.9 12.6 89 1.0 SW 7 9 4 5 1018.8 1018.8 0.0
04/08:00pm 14.5 15.1 12.0 85 1.4 CALM 0 0 0 0 1018.5 1018.5 0.0
04/07:30pm 14.8 15.6 12.5 86 1.3 CALM 0 0 0 0 1018.1 1018.0 0.0
04/07:00pm 15.5 16.2 12.1 80 1.9 CALM 0 6 0 3 1017.8 1017.7 0.0
04/06:30pm 16.7 17.1 12.5 76 2.3 ESE 2 6 1 3 1017.3 1017.2 0.0
04/06:00pm 17.4 16.8 12.3 72 2.8 SE 7 11 4 6 1016.6 1016.5 0.0
04/05:30pm 18.3 17.7 12.3 68 3.3 SE 7 9 4 5 1015.9 1015.8 0.0
04/05:00pm 19.7 18.5 10.4 55 5.0 E 7 11 4 6 1015.3 1015.3 0.0
04/04:30pm 20.9 17.5 9.2 47 6.2 ESE 17 26 9 14 1014.8 1014.8 0.0
04/04:00pm 24.5 21.7 5.3 29 9.7 S 9 13 5 7 1014.1 1014.1 0.0
04/03:30pm 24.7 20.5 5.5 29 9.8 SSW 17 24 9 13 1013.9 1013.9 0.0
04/03:00pm 25.4 21.6 5.6 28 10.2 SW 15 19 8 10 1013.6 1013.6 0.0
04/02:30pm 25.3 22.3 6.0 29 10.0 SSW 11 20 6 11 1013.6 1013.6 0.0
04/02:00pm 24.9 21.5 6.1 30 9.7 WSW 13 22 7 12 1013.5 1013.5 0.0
04/01:30pm 24.6 21.7 6.4 31 9.4 S 11 19 6 10 1013.6 1013.6 0.0
04/01:00pm 25.3 24.2 8.3 34 9.1 SE 4 13 2 7 1013.8 1013.8 0.0
04/12:30pm 23.7 21.9 7.3 35 8.6 W 6 13 3 7 1014.2 1014.2 0.0
04/12:00pm 23.5 21.9 8.0 37 8.2 N 6 13 3 7 1014.5 1014.5 0.0
04/11:30am 23.2 21.9 7.7 37 8.1 NW 4 7 2 4 1014.8 1014.8 0.0
04/11:00am 22.4 20.5 7.4 38 7.8 NNW 7 13 4 7 1014.9 1014.9 0.0
04/10:30am 21.7 20.5 7.9 41 7.2 N 4 9 2 5 1015.1 1015.1 0.0
04/10:00am 19.8 18.6 8.2 47 6.0 NE 4 9 2 5 1015.2 1015.2 0.0
04/09:30am 17.4 15.9 8.3 55 4.7 E 6 9 3 5 1015.6 1015.5 0.0
04/09:00am 14.6 12.7 7.4 62 3.6 SE 7 11 4 6 1015.5 1015.4 0.0
04/08:30am 12.5 10.9 8.0 74 2.2 SE 6 7 3 4 1015.2 1015.2 0.0
04/08:00am 9.7 9.0 7.1 84 1.2 CALM 0 0 0 0 1014.8 1014.8 0.0
04/07:30am 7.3 6.5 6.6 95 0.3 CALM 0 0 0 0 1014.4 1014.4 0.0
04/07:00am 5.7 4.6 5.1 96 0.3 CALM 0 0 0 0 1013.9 1013.9 0.0
04/06:30am 5.6 4.5 5.2 97 0.2 CALM 0 0 0 0 1013.4 1013.4 0.0
04/06:00am 5.2 3.9 4.2 93 0.4 CALM 0 0 0 0 1012.9 1012.9 0.0
04/05:30am 6.1 5.1 5.7 97 0.2 CALM 0 0 0 0 1012.4 1012.4 0.0
04/05:00am 5.5 4.2 4.3 92 0.5 CALM 0 0 0 0 1012.1 1012.1 0.0
04/04:30am 6.3 5.3 5.6 95 0.3 CALM 0 0 0 0 1011.8 1011.8 0.0
04/04:00am 5.9 3.7 5.2 95 0.3 SW 6 7 3 4 1011.5 1011.5 0.0
04/03:30am 6.3 5.2 5.3 93 0.4 CALM 0 0 0 0 1011.2 1011.2 0.0
04/03:00am 6.6 5.6 5.4 92 0.5 CALM 0 0 0 0 1011.2 1011.2 0.0
04/02:30am 7.3 6.4 6.2 93 0.5 CALM 0 0 0 0 1011.1 1011.1 0.0
04/02:00am 7.2 6.2 5.5 89 0.8 CALM 0 0 0 0 1011.1 1011.1 0.0
04/01:30am 7.2 6.1 5.2 87 0.9 CALM 0 0 0 0 1011.1 1011.1 0.0
04/01:00am 7.1 5.5 4.6 84 1.1 NNE 2 9 1 5 1010.9 1010.9 0.0
04/12:30am 7.7 6.3 5.3 85 1.1 S 2 7 1 4 1010.8 1010.8 0.0
04/12:00am 8.7 7.7 5.6 81 1.4 CALM 0 0 0 0 1011.0 1011.0 0.0
 
Date/Time
EST
Tmp

°C
App
Tmp
°C
Dew
Point
°C
Rel
Hum
%
Delta-T

°C
Wind Press
QNH
hPa
Press
MSL
hPa
Rain
since
9 am
mm
Dir
 
Spd
km/h
Gust
km/h
Spd
kts
Gust
kts
03/11:30pm 9.5 8.2 5.9 78 1.7 ENE 2 9 1 5 1010.9 1010.9 0.0
03/11:00pm 8.9 6.6 4.9 76 1.8 NW 6 9 3 5 1010.7 1010.7 0.0
03/10:30pm 10.8 8.0 5.1 68 2.6 SSE 9 11 5 6 1010.6 1010.6 0.0
03/10:00pm 11.6 9.7 4.8 63 3.1 SSW 4 7 2 4 1010.2 1010.2 0.0
03/09:30pm 12.1 9.2 4.6 60 3.4 S 9 9 5 5 1010.0 1010.0 0.0
03/09:00pm 14.9 13.5 5.4 53 4.5 NW 2 6 1 3 1009.6 1009.6 0.0
03/08:30pm 17.0 14.3 5.6 47 5.5 NNW 9 13 5 7 1009.1 1009.1 0.0
03/08:00pm 18.0 15.9 5.9 45 6.0 NNW 6 9 3 5 1008.9 1008.9 0.0
03/07:30pm 16.9 14.1 5.2 46 5.6 NW 9 11 5 6 1008.5 1008.5 0.0
03/07:00pm 16.8 15.1 3.8 42 6.1 NNW 2 7 1 4 1008.2 1008.2 0.0
03/06:30pm 16.7 13.7 4.1 43 5.9 NNW 9 13 5 7 1007.8 1007.8 0.0
03/06:00pm 18.6 15.4 3.3 36 7.2 NW 9 13 5 7 1007.5 1007.5 0.0
03/05:30pm 20.4 16.4 2.7 31 8.3 NW 13 17 7 9 1006.9 1006.8 0.0
03/05:00pm 22.1 18.0 2.2 27 9.4 NW 13 20 7 11 1006.5 1006.4 0.0
03/04:30pm 23.7 18.5 2.5 25 10.2 NW 19 26 10 14 1006.4 1006.3 0.0
03/04:00pm 24.6 18.8 2.1 23 10.8 NW 22 30 12 16 1006.1 1006.0 0.0
03/03:30pm 25.1 19.8 1.9 22 11.1 NW 19 28 10 15 1006.1 1006.0 0.0
03/03:00pm 25.6 20.1 1.7 21 11.5 NW 20 32 11 17 1006.1 1006.0 0.0
03/02:30pm 25.8 20.6 2.5 22 11.3 NW 19 24 10 13 1006.2 1006.1 0.0
03/02:00pm 25.3 20.2 3.3 24 10.8 NW 19 30 10 16 1006.6 1006.5 0.0
03/01:30pm 24.8 20.1 2.9 24 10.7 WNW 17 33 9 18 1006.9 1006.8 0.0
03/01:00pm 25.0 20.1 4.2 26 10.4 NW 19 28 10 15 1007.4 1007.4 0.0
03/12:30pm 24.2 20.2 5.1 29 9.6 NNW 15 20 8 11 1008.0 1008.0 0.0
03/12:00pm 23.5 18.7 4.9 30 9.3 WNW 19 28 10 15 1008.8 1008.8 0.0
03/11:30am 22.4 17.0 4.5 31 8.8 WNW 22 28 12 15 1009.5 1009.5 0.0
03/11:00am 21.6 17.4 5.9 36 7.9 NNW 17 26 9 14 1010.3 1010.3 0.0
03/10:30am 20.5 16.8 6.1 39 7.2 N 15 22 8 12 1010.9 1010.9 0.0
03/10:00am 18.8 16.3 6.6 45 6.1 NNW 9 11 5 6 1011.8 1011.8 0.0
03/09:30am 16.5 14.9 8.2 58 4.2 N 6 9 3 5 1012.2 1012.2 0.0
03/09:00am 13.5 12.9 7.5 67 3.0 CALM 0 0 0 0 1012.7 1012.7 0.0
03/08:30am 10.2 9.4 6.7 79 1.6 CALM 0 6 0 3 1012.9 1012.9 0.0
03/08:00am 8.4 7.8 7.2 92 0.6 CALM 0 0 0 0 1012.7 1012.7 0.0
03/07:30am 6.4 5.2 6.3 99 0.0 NNE 2 6 1 3 1012.7 1012.7 0.0
03/07:00am 4.5 2.9 4.4 99 0.0 SSE 2 6 1 3 1012.7 1012.7 0.0
03/06:30am 4.0 1.9 3.7 98 0.1 S 4 9 2 5 1012.6 1012.6 0.0
03/06:10am 4.9 3.7 4.8 99 0.0 CALM 0 0 0 0 1012.4 1012.4 0.0
03/06:00am 4.8 3.6 4.7 99 0.0 CALM 0 0 0 0 1012.2 1012.2 0.0
03/05:30am 5.1 3.2 5.0 99 0.0 N 4 7 2 4 1011.9 1011.9 0.0
03/05:00am 5.2 3.7 4.9 98 0.1 ESE 2 6 1 3 1011.7 1011.7 0.0
03/04:44am 5.6 4.5 5.3 98 0.1 CALM 0 0 0 0 1011.8 1011.8 0.0
03/04:40am 5.6 4.5 5.3 98 0.1 CALM 0 0 0 0 1011.8 1011.8 0.0
03/04:30am 5.7 4.7 5.4 98 0.1 CALM 0 0 0 0 1011.7 1011.7 0.0
03/04:09am 5.5 4.4 4.9 96 0.3 CALM 0 0 0 0 1011.6 1011.6 0.0
03/04:00am 5.7 4.6 5.0 95 0.3 CALM 0 0 0 0 1011.5 1011.5 0.0
03/03:30am 5.7 4.1 4.7 93 0.4 SW 2 7 1 4 1011.5 1011.5 0.0
03/03:00am 5.7 4.4 4.3 91 0.6 CALM 0 2 0 1 1011.7 1011.7 0.0
03/02:30am 6.3 4.1 5.4 94 0.4 S 6 7 3 4 1012.0 1012.0 0.0
03/02:00am 6.5 5.1 5.5 93 0.4 ENE 2 9 1 5 1012.1 1012.1 0.0
03/01:30am 7.0 6.0 5.8 92 0.5 CALM 0 0 0 0 1012.6 1012.6 0.0
03/01:00am 7.1 6.1 5.6 90 0.7 CALM 0 0 0 0 1013.1 1013.1 0.0
03/12:30am 8.0 7.3 7.1 94 0.4 CALM 0 0 0 0 1013.5 1013.5 0.0
03/12:00am 8.1 7.2 6.1 87 0.9 CALM 0 0 0 0 1013.5 1013.5 0.0
 
Date/Time
EST
Tmp

°C
App
Tmp
°C
Dew
Point
°C
Rel
Hum
%
Delta-T

°C
Wind Press
QNH
hPa
Press
MSL
hPa
Rain
since
9 am
mm
Dir
 
Spd
km/h
Gust
km/h
Spd
kts
Gust
kts
02/11:30pm 8.6 6.7 6.7 88 0.9 S 6 11 3 6 1013.8 1013.8 0.0
02/11:00pm 9.0 8.6 8.4 96 0.3 CALM 0 0 0 0 1014.2 1014.2 0.0
02/10:30pm 9.3 8.9 8.4 94 0.4 CALM 0 0 0 0 1014.3 1014.3 0.0
02/10:00pm 10.0 8.9 8.4 90 0.8 N 4 7 2 4 1014.2 1014.2 0.0
02/09:30pm 10.7 9.7 8.8 88 0.9 NNW 4 7 2 4 1014.0 1014.0 0.0
02/09:00pm 11.0 10.6 8.2 83 1.4 CALM 0 0 0 0 1014.2 1014.2 0.0
02/08:30pm 11.8 11.5 8.6 81 1.6 CALM 0 0 0 0 1013.9 1013.9 0.0
02/08:00pm 14.6 13.3 9.8 73 2.5 S 7 7 4 4 1013.8 1013.8 0.0
02/07:30pm 14.8 15.0 10.4 75 2.3 CALM 0 4 0 2 1013.6 1013.6 0.0
02/07:00pm 14.8 14.9 10.2 74 2.4 CALM 0 0 0 0 1013.3 1013.3 0.0
02/06:30pm 15.5 15.3 9.2 66 3.3 CALM 0 0 0 0 1012.9 1012.9 0.0
02/06:00pm 16.1 16.1 9.8 66 3.3 CALM 0 0 0 0 1012.4 1012.4 0.0
02/05:30pm 18.2 16.6 8.7 54 4.9 ESE 7 9 4 5 1012.0 1012.0 0.0
02/05:00pm 18.2 18.1 9.3 56 4.7 CALM 0 0 0 0 1012.0 1012.0 0.0
02/04:30pm 19.7 19.2 7.8 46 6.1 CALM 0 0 0 0 1012.0 1012.0 0.0
02/04:00pm 20.3 19.8 8.0 45 6.4 CALM 0 0 0 0 1012.1 1012.1 0.0
02/03:30pm 21.0 19.3 7.6 42 6.9 N 6 9 3 5 1012.2 1012.2 0.0
02/03:00pm 21.3 19.1 6.0 37 7.7 NNE 7 11 4 6 1012.3 1012.3 0.0
02/02:30pm 21.6 18.6 5.9 36 7.9 N 11 13 6 7 1012.3 1012.3 0.0
02/02:00pm 21.6 18.5 5.5 35 8.0 NNE 11 17 6 9 1012.1 1012.1 0.0
02/01:30pm 21.5 18.3 5.0 34 8.2 NE 11 15 6 8 1012.2 1012.2 0.0
02/01:00pm 21.7 18.8 4.7 33 8.4 NE 9 13 5 7 1012.8 1012.8 0.0
02/12:30pm 22.1 18.0 4.2 31 8.8 NNW 15 24 8 13 1013.7 1013.7 0.0
02/12:00pm 21.9 19.3 4.0 31 8.7 N 7 15 4 8 1013.5 1013.5 0.0
02/11:30am 21.3 18.3 4.0 32 8.4 NNW 9 19 5 10 1014.2 1014.2 0.0
02/11:00am 19.8 17.3 4.7 37 7.3 SSW 7 15 4 8 1015.0 1015.0 0.0
02/10:30am 19.7 18.0 5.7 40 6.9 NNE 4 9 2 5 1015.8 1015.7 0.0
02/10:00am 18.2 16.0 5.1 42 6.3 W 6 11 3 6 1016.4 1016.3 0.0
02/09:30am 17.5 14.8 5.8 46 5.7 WNW 9 13 5 7 1016.9 1016.8 0.0
02/09:00am 15.7 14.9 6.4 54 4.5 CALM 0 0 0 0 1017.2 1017.1 0.0
02/08:30am 13.3 12.6 6.9 65 3.1 CALM 0 0 0 0 1017.5 1017.4 0.0
02/08:00am 10.6 10.0 7.3 80 1.6 CALM 0 0 0 0 1017.7 1017.6 0.0
02/07:30am 8.9 8.2 6.9 87 0.9 CALM 0 0 0 0 1017.6 1017.5 0.0
02/07:00am 7.3 6.4 6.2 93 0.5 CALM 0 0 0 0 1017.6 1017.5 0.0
02/06:30am 6.3 4.9 3.8 84 1.1 CALM 0 0 0 0 1017.5 1017.4 0.0
02/06:00am 8.3 7.4 6.1 86 1.0 CALM 0 0 0 0 1017.4 1017.3 0.0
02/05:30am 8.3 7.2 5.2 81 1.4 CALM 0 0 0 0 1017.2 1017.1 0.0

Latest Capital City Observations: Canberra | Sydney | Melbourne | Brisbane | Adelaide | Perth | Hobart | Darwin

Other Formats:

Comma delimited format used in spreadsheet applications
http://www.bom.gov.au/fwo/IDN60901/IDN60901.94755.axf

JavaScript Object Notation format (JSON) in row-major order
http://www.bom.gov.au/fwo/IDN60901/IDN60901.94755.json